sensor_id;sensor_type;location;lat;lon;timestamp;temperature;humidity
20376;DHT22;10347;51.828;6.466;2023-03-23T00:01:54;13.40;99.90
20376;DHT22;10347;51.828;6.466;2023-03-23T00:04:20;13.40;99.90
20376;DHT22;10347;51.828;6.466;2023-03-23T00:06:47;13.40;99.90
20376;DHT22;10347;51.828;6.466;2023-03-23T00:09:13;13.50;99.90
20376;DHT22;10347;51.828;6.466;2023-03-23T00:11:41;13.50;99.90
20376;DHT22;10347;51.828;6.466;2023-03-23T00:14:09;13.40;99.90
20376;DHT22;10347;51.828;6.466;2023-03-23T00:16:39;13.50;99.90
20376;DHT22;10347;51.828;6.466;2023-03-23T00:19:08;13.50;99.90
20376;DHT22;10347;51.828;6.466;2023-03-23T00:21:36;13.50;99.90
20376;DHT22;10347;51.828;6.466;2023-03-23T00:24:09;13.40;99.90
20376;DHT22;10347;51.828;6.466;2023-03-23T00:26:37;13.50;99.90
20376;DHT22;10347;51.828;6.466;2023-03-23T00:29:08;13.50;99.90
20376;DHT22;10347;51.828;6.466;2023-03-23T00:31:39;13.40;99.90
20376;DHT22;10347;51.828;6.466;2023-03-23T00:34:04;13.50;99.90
20376;DHT22;10347;51.828;6.466;2023-03-23T00:36:31;13.50;99.90
20376;DHT22;10347;51.828;6.466;2023-03-23T00:38:58;13.50;99.90
20376;DHT22;10347;51.828;6.466;2023-03-23T00:41:25;13.60;99.90
20376;DHT22;10347;51.828;6.466;2023-03-23T00:43:57;13.50;99.90
20376;DHT22;10347;51.828;6.466;2023-03-23T00:46:25;13.50;99.90
20376;DHT22;10347;51.828;6.466;2023-03-23T00:48:51;13.60;99.90
20376;DHT22;10347;51.828;6.466;2023-03-23T00:51:18;13.60;99.90
20376;DHT22;10347;51.828;6.466;2023-03-23T00:53:44;13.60;99.90
20376;DHT22;10347;51.828;6.466;2023-03-23T00:56:10;13.60;99.90
20376;DHT22;10347;51.828;6.466;2023-03-23T00:58:36;13.60;99.90
20376;DHT22;10347;51.828;6.466;2023-03-23T01:01:02;13.60;99.90
20376;DHT22;10347;51.828;6.466;2023-03-23T01:03:28;13.60;99.90
20376;DHT22;10347;51.828;6.466;2023-03-23T01:05:55;13.60;99.90
20376;DHT22;10347;51.828;6.466;2023-03-23T01:08:21;13.60;99.90
20376;DHT22;10347;51.828;6.466;2023-03-23T01:10:48;13.60;99.90
20376;DHT22;10347;51.828;6.466;2023-03-23T01:13:14;13.60;99.90
20376;DHT22;10347;51.828;6.466;2023-03-23T01:15:41;13.70;99.90
20376;DHT22;10347;51.828;6.466;2023-03-23T01:18:08;13.60;99.90
20376;DHT22;10347;51.828;6.466;2023-03-23T01:20:35;13.70;99.90
20376;DHT22;10347;51.828;6.466;2023-03-23T01:23:01;13.70;99.90
20376;DHT22;10347;51.828;6.466;2023-03-23T01:25:28;13.70;99.90
20376;DHT22;10347;51.828;6.466;2023-03-23T01:27:55;13.80;99.90
20376;DHT22;10347;51.828;6.466;2023-03-23T01:30:21;13.70;99.90
20376;DHT22;10347;51.828;6.466;2023-03-23T01:32:47;13.70;99.90
20376;DHT22;10347;51.828;6.466;2023-03-23T01:35:13;13.70;99.90
20376;DHT22;10347;51.828;6.466;2023-03-23T01:37:39;13.70;99.90
20376;DHT22;10347;51.828;6.466;2023-03-23T01:40:05;13.70;99.90
20376;DHT22;10347;51.828;6.466;2023-03-23T01:42:35;13.70;99.90
20376;DHT22;10347;51.828;6.466;2023-03-23T01:45:34;13.80;99.90
20376;DHT22;10347;51.828;6.466;2023-03-23T01:48:04;13.70;99.90
20376;DHT22;10347;51.828;6.466;2023-03-23T01:50:34;13.70;99.90
20376;DHT22;10347;51.828;6.466;2023-03-23T01:53:04;13.70;99.90
20376;DHT22;10347;51.828;6.466;2023-03-23T01:55:33;13.70;99.90
20376;DHT22;10347;51.828;6.466;2023-03-23T01:58:02;13.70;99.90
20376;DHT22;10347;51.828;6.466;2023-03-23T02:00:27;13.70;99.90
20376;DHT22;10347;51.828;6.466;2023-03-23T02:02:54;13.70;99.90
20376;DHT22;10347;51.828;6.466;2023-03-23T02:05:28;13.70;99.90
20376;DHT22;10347;51.828;6.466;2023-03-23T02:07:57;13.70;99.90
20376;DHT22;10347;51.828;6.466;2023-03-23T02:10:25;13.70;99.90
20376;DHT22;10347;51.828;6.466;2023-03-23T02:12:51;13.70;99.90
20376;DHT22;10347;51.828;6.466;2023-03-23T02:15:16;13.70;99.90
20376;DHT22;10347;51.828;6.466;2023-03-23T02:17:56;13.70;99.90
20376;DHT22;10347;51.828;6.466;2023-03-23T02:27:03;13.70;99.90
20376;DHT22;10347;51.828;6.466;2023-03-23T02:29:18;13.70;99.90
20376;DHT22;10347;51.828;6.466;2023-03-23T02:34:59;13.70;99.90
20376;DHT22;10347;51.828;6.466;2023-03-23T02:37:52;13.70;99.90
20376;DHT22;10347;51.828;6.466;2023-03-23T02:40:24;13.70;99.90
20376;DHT22;10347;51.828;6.466;2023-03-23T02:42:54;13.70;99.90
20376;DHT22;10347;51.828;6.466;2023-03-23T02:45:22;13.70;99.90
20376;DHT22;10347;51.828;6.466;2023-03-23T02:47:51;13.70;99.90
20376;DHT22;10347;51.828;6.466;2023-03-23T02:50:20;13.70;99.90
20376;DHT22;10347;51.828;6.466;2023-03-23T02:52:46;13.70;99.90
20376;DHT22;10347;51.828;6.466;2023-03-23T02:55:14;13.70;99.90
20376;DHT22;10347;51.828;6.466;2023-03-23T02:57:41;13.70;99.90
20376;DHT22;10347;51.828;6.466;2023-03-23T03:00:14;13.70;99.90
20376;DHT22;10347;51.828;6.466;2023-03-23T03:02:43;13.70;99.90
20376;DHT22;10347;51.828;6.466;2023-03-23T03:08:15;13.80;99.90
20376;DHT22;10347;51.828;6.466;2023-03-23T03:18:56;13.80;99.90
20376;DHT22;10347;51.828;6.466;2023-03-23T03:21:25;13.70;99.90
20376;DHT22;10347;51.828;6.466;2023-03-23T03:23:54;13.80;99.90
20376;DHT22;10347;51.828;6.466;2023-03-23T03:26:22;13.80;99.90
20376;DHT22;10347;51.828;6.466;2023-03-23T03:28:52;13.80;99.90
20376;DHT22;10347;51.828;6.466;2023-03-23T03:31:21;13.80;99.90
20376;DHT22;10347;51.828;6.466;2023-03-23T03:33:49;13.80;99.90
20376;DHT22;10347;51.828;6.466;2023-03-23T03:36:19;13.80;99.90
20376;DHT22;10347;51.828;6.466;2023-03-23T03:38:48;13.80;99.90
20376;DHT22;10347;51.828;6.466;2023-03-23T03:41:14;13.80;99.90
20376;DHT22;10347;51.828;6.466;2023-03-23T03:43:40;13.80;99.90
20376;DHT22;10347;51.828;6.466;2023-03-23T03:46:06;13.90;99.90
20376;DHT22;10347;51.828;6.466;2023-03-23T03:48:31;13.80;99.90
20376;DHT22;10347;51.828;6.466;2023-03-23T03:50:57;13.80;99.90
20376;DHT22;10347;51.828;6.466;2023-03-23T03:53:26;13.90;99.90
20376;DHT22;10347;51.828;6.466;2023-03-23T03:55:51;13.90;99.90
20376;DHT22;10347;51.828;6.466;2023-03-23T03:58:21;13.90;99.90
20376;DHT22;10347;51.828;6.466;2023-03-23T04:00:47;13.90;99.90
20376;DHT22;10347;51.828;6.466;2023-03-23T04:03:15;13.80;99.90
20376;DHT22;10347;51.828;6.466;2023-03-23T04:05:42;13.80;99.90
20376;DHT22;10347;51.828;6.466;2023-03-23T04:08:10;13.90;99.90
20376;DHT22;10347;51.828;6.466;2023-03-23T04:10:37;13.90;99.90
20376;DHT22;10347;51.828;6.466;2023-03-23T04:13:02;13.80;99.90
20376;DHT22;10347;51.828;6.466;2023-03-23T04:15:30;13.90;99.90
20376;DHT22;10347;51.828;6.466;2023-03-23T04:17:55;13.90;99.90
20376;DHT22;10347;51.828;6.466;2023-03-23T04:20:22;13.90;99.90
20376;DHT22;10347;51.828;6.466;2023-03-23T04:22:48;13.80;99.90
20376;DHT22;10347;51.828;6.466;2023-03-23T04:25:16;13.90;99.90
20376;DHT22;10347;51.828;6.466;2023-03-23T04:27:43;13.90;99.90
20376;DHT22;10347;51.828;6.466;2023-03-23T04:30:10;13.90;99.90
20376;DHT22;10347;51.828;6.466;2023-03-23T04:32:35;13.90;99.90
20376;DHT22;10347;51.828;6.466;2023-03-23T04:35:06;13.90;99.90
20376;DHT22;10347;51.828;6.466;2023-03-23T04:37:32;13.90;99.90
20376;DHT22;10347;51.828;6.466;2023-03-23T04:39:58;13.90;99.90
20376;DHT22;10347;51.828;6.466;2023-03-23T04:42:30;13.90;99.90
20376;DHT22;10347;51.828;6.466;2023-03-23T04:44:59;13.90;99.90
20376;DHT22;10347;51.828;6.466;2023-03-23T04:47:25;13.90;99.90
20376;DHT22;10347;51.828;6.466;2023-03-23T04:49:57;13.90;99.90
20376;DHT22;10347;51.828;6.466;2023-03-23T04:52:24;13.90;99.90
20376;DHT22;10347;51.828;6.466;2023-03-23T04:54:51;13.90;99.90
20376;DHT22;10347;51.828;6.466;2023-03-23T04:57:17;13.90;99.90
20376;DHT22;10347;51.828;6.466;2023-03-23T04:59:43;13.90;99.90
20376;DHT22;10347;51.828;6.466;2023-03-23T05:02:09;13.90;99.90
20376;DHT22;10347;51.828;6.466;2023-03-23T05:04:35;13.90;99.90
20376;DHT22;10347;51.828;6.466;2023-03-23T05:07:03;13.90;99.90
20376;DHT22;10347;51.828;6.466;2023-03-23T05:09:28;13.90;99.90
20376;DHT22;10347;51.828;6.466;2023-03-23T05:11:54;13.90;99.90
20376;DHT22;10347;51.828;6.466;2023-03-23T05:14:19;13.90;99.90
20376;DHT22;10347;51.828;6.466;2023-03-23T05:16:46;13.90;99.90
20376;DHT22;10347;51.828;6.466;2023-03-23T05:19:14;14.00;99.90
20376;DHT22;10347;51.828;6.466;2023-03-23T05:21:40;13.90;99.90
20376;DHT22;10347;51.828;6.466;2023-03-23T05:24:06;14.00;99.90
20376;DHT22;10347;51.828;6.466;2023-03-23T05:26:31;14.00;99.90
20376;DHT22;10347;51.828;6.466;2023-03-23T05:28:57;14.00;99.90
20376;DHT22;10347;51.828;6.466;2023-03-23T05:31:24;14.00;99.90
20376;DHT22;10347;51.828;6.466;2023-03-23T05:33:50;14.00;99.90
20376;DHT22;10347;51.828;6.466;2023-03-23T05:36:16;14.00;99.90
20376;DHT22;10347;51.828;6.466;2023-03-23T05:38:42;14.00;99.90
20376;DHT22;10347;51.828;6.466;2023-03-23T05:41:14;14.00;99.90
20376;DHT22;10347;51.828;6.466;2023-03-23T05:43:40;14.00;99.90
20376;DHT22;10347;51.828;6.466;2023-03-23T05:46:06;14.00;99.90
20376;DHT22;10347;51.828;6.466;2023-03-23T05:48:33;14.00;99.90
20376;DHT22;10347;51.828;6.466;2023-03-23T05:50:59;13.90;99.90
20376;DHT22;10347;51.828;6.466;2023-03-23T05:53:25;14.00;99.90
20376;DHT22;10347;51.828;6.466;2023-03-23T05:55:51;14.00;99.90
20376;DHT22;10347;51.828;6.466;2023-03-23T05:58:17;14.00;99.90
20376;DHT22;10347;51.828;6.466;2023-03-23T06:00:42;14.00;99.90
20376;DHT22;10347;51.828;6.466;2023-03-23T06:03:08;14.00;99.90
20376;DHT22;10347;51.828;6.466;2023-03-23T06:05:33;14.00;99.90
20376;DHT22;10347;51.828;6.466;2023-03-23T06:07:59;14.00;99.90
20376;DHT22;10347;51.828;6.466;2023-03-23T06:10:25;14.00;99.90
20376;DHT22;10347;51.828;6.466;2023-03-23T06:12:52;14.00;99.90
20376;DHT22;10347;51.828;6.466;2023-03-23T06:15:18;14.00;99.90
20376;DHT22;10347;51.828;6.466;2023-03-23T06:17:44;13.90;99.90
20376;DHT22;10347;51.828;6.466;2023-03-23T06:20:10;14.00;99.90
20376;DHT22;10347;51.828;6.466;2023-03-23T06:22:37;13.90;99.90
20376;DHT22;10347;51.828;6.466;2023-03-23T06:25:07;14.00;99.90
20376;DHT22;10347;51.828;6.466;2023-03-23T06:27:32;14.00;99.90
20376;DHT22;10347;51.828;6.466;2023-03-23T06:29:58;14.00;99.90
20376;DHT22;10347;51.828;6.466;2023-03-23T06:32:25;14.00;99.90
20376;DHT22;10347;51.828;6.466;2023-03-23T06:34:52;14.00;99.90
20376;DHT22;10347;51.828;6.466;2023-03-23T06:37:18;14.00;99.90
20376;DHT22;10347;51.828;6.466;2023-03-23T06:39:43;14.00;99.90
20376;DHT22;10347;51.828;6.466;2023-03-23T06:42:10;14.00;99.90
20376;DHT22;10347;51.828;6.466;2023-03-23T06:44:39;14.00;99.90
20376;DHT22;10347;51.828;6.466;2023-03-23T06:47:05;14.00;99.90
20376;DHT22;10347;51.828;6.466;2023-03-23T06:49:30;14.00;99.90
20376;DHT22;10347;51.828;6.466;2023-03-23T06:51:57;14.00;99.90
20376;DHT22;10347;51.828;6.466;2023-03-23T06:54:23;14.00;99.90
20376;DHT22;10347;51.828;6.466;2023-03-23T06:56:48;14.00;99.90
20376;DHT22;10347;51.828;6.466;2023-03-23T06:59:14;14.00;99.90
20376;DHT22;10347;51.828;6.466;2023-03-23T07:01:39;14.00;99.90
20376;DHT22;10347;51.828;6.466;2023-03-23T07:04:05;14.00;99.90
20376;DHT22;10347;51.828;6.466;2023-03-23T07:06:31;14.00;99.90
20376;DHT22;10347;51.828;6.466;2023-03-23T07:08:57;14.00;99.90
20376;DHT22;10347;51.828;6.466;2023-03-23T07:11:23;14.00;99.90
20376;DHT22;10347;51.828;6.466;2023-03-23T07:13:49;14.00;99.90
20376;DHT22;10347;51.828;6.466;2023-03-23T07:16:16;14.00;99.90
20376;DHT22;10347;51.828;6.466;2023-03-23T07:18:42;14.00;99.90
20376;DHT22;10347;51.828;6.466;2023-03-23T07:21:08;14.00;99.90
20376;DHT22;10347;51.828;6.466;2023-03-23T07:23:33;14.00;99.90
20376;DHT22;10347;51.828;6.466;2023-03-23T07:25:59;14.00;99.90
20376;DHT22;10347;51.828;6.466;2023-03-23T07:28:25;14.00;99.90
20376;DHT22;10347;51.828;6.466;2023-03-23T07:30:51;14.00;99.90
20376;DHT22;10347;51.828;6.466;2023-03-23T07:33:16;14.00;99.90
20376;DHT22;10347;51.828;6.466;2023-03-23T07:35:42;14.00;99.90
20376;DHT22;10347;51.828;6.466;2023-03-23T07:38:08;14.00;99.90
20376;DHT22;10347;51.828;6.466;2023-03-23T07:40:34;14.00;99.90
20376;DHT22;10347;51.828;6.466;2023-03-23T07:43:01;14.10;99.90
20376;DHT22;10347;51.828;6.466;2023-03-23T07:45:27;14.10;99.90
20376;DHT22;10347;51.828;6.466;2023-03-23T07:47:53;14.10;99.90
20376;DHT22;10347;51.828;6.466;2023-03-23T07:50:20;14.00;99.90
20376;DHT22;10347;51.828;6.466;2023-03-23T07:52:58;14.10;99.90
20376;DHT22;10347;51.828;6.466;2023-03-23T07:55:25;14.00;99.90
20376;DHT22;10347;51.828;6.466;2023-03-23T07:57:53;14.00;99.90
20376;DHT22;10347;51.828;6.466;2023-03-23T08:00:20;14.00;99.90
20376;DHT22;10347;51.828;6.466;2023-03-23T08:02:51;14.00;99.90
20376;DHT22;10347;51.828;6.466;2023-03-23T08:05:18;14.00;99.90
20376;DHT22;10347;51.828;6.466;2023-03-23T08:07:46;14.00;99.90
20376;DHT22;10347;51.828;6.466;2023-03-23T08:10:13;14.00;99.90
20376;DHT22;10347;51.828;6.466;2023-03-23T08:12:41;14.00;99.90
20376;DHT22;10347;51.828;6.466;2023-03-23T08:15:08;14.00;99.90
20376;DHT22;10347;51.828;6.466;2023-03-23T08:17:35;13.90;99.90
20376;DHT22;10347;51.828;6.466;2023-03-23T08:20:02;13.90;99.90
20376;DHT22;10347;51.828;6.466;2023-03-23T08:22:34;13.90;99.90
20376;DHT22;10347;51.828;6.466;2023-03-23T08:25:02;13.90;99.90
20376;DHT22;10347;51.828;6.466;2023-03-23T08:27:28;13.80;99.90
20376;DHT22;10347;51.828;6.466;2023-03-23T08:29:54;13.80;99.90
20376;DHT22;10347;51.828;6.466;2023-03-23T08:32:19;13.80;99.90
20376;DHT22;10347;51.828;6.466;2023-03-23T08:34:45;13.70;99.90
20376;DHT22;10347;51.828;6.466;2023-03-23T08:37:11;13.70;99.90
20376;DHT22;10347;51.828;6.466;2023-03-23T08:39:37;13.60;99.90
20376;DHT22;10347;51.828;6.466;2023-03-23T08:42:03;13.60;99.90
20376;DHT22;10347;51.828;6.466;2023-03-23T08:44:28;13.50;99.90
20376;DHT22;10347;51.828;6.466;2023-03-23T08:46:54;13.40;99.90
20376;DHT22;10347;51.828;6.466;2023-03-23T08:49:23;13.50;99.90
20376;DHT22;10347;51.828;6.466;2023-03-23T08:51:49;13.50;99.90
20376;DHT22;10347;51.828;6.466;2023-03-23T08:54:15;13.50;99.90
20376;DHT22;10347;51.828;6.466;2023-03-23T08:56:42;13.40;99.90
20376;DHT22;10347;51.828;6.466;2023-03-23T08:59:08;13.40;99.90
20376;DHT22;10347;51.828;6.466;2023-03-23T09:01:34;13.40;99.90
20376;DHT22;10347;51.828;6.466;2023-03-23T09:04:00;13.30;99.90
20376;DHT22;10347;51.828;6.466;2023-03-23T09:06:26;13.30;99.90
20376;DHT22;10347;51.828;6.466;2023-03-23T09:08:53;13.30;99.90
20376;DHT22;10347;51.828;6.466;2023-03-23T09:11:20;13.30;99.90
20376;DHT22;10347;51.828;6.466;2023-03-23T09:13:46;13.30;99.90
20376;DHT22;10347;51.828;6.466;2023-03-23T09:16:12;13.30;99.90
20376;DHT22;10347;51.828;6.466;2023-03-23T09:18:38;13.30;99.90
20376;DHT22;10347;51.828;6.466;2023-03-23T09:21:04;13.20;99.90
20376;DHT22;10347;51.828;6.466;2023-03-23T09:23:30;13.20;99.90
20376;DHT22;10347;51.828;6.466;2023-03-23T09:25:56;13.20;99.90
20376;DHT22;10347;51.828;6.466;2023-03-23T09:28:21;13.20;99.90
20376;DHT22;10347;51.828;6.466;2023-03-23T09:30:47;13.20;99.90
20376;DHT22;10347;51.828;6.466;2023-03-23T09:33:14;13.20;99.90
20376;DHT22;10347;51.828;6.466;2023-03-23T09:35:40;13.20;99.90
20376;DHT22;10347;51.828;6.466;2023-03-23T09:38:07;13.20;99.90
20376;DHT22;10347;51.828;6.466;2023-03-23T09:41:27;13.10;99.90
20376;DHT22;10347;51.828;6.466;2023-03-23T09:46:47;13.20;99.90
20376;DHT22;10347;51.828;6.466;2023-03-23T09:49:44;13.10;99.90
20376;DHT22;10347;51.828;6.466;2023-03-23T09:52:14;13.20;99.90
20376;DHT22;10347;51.828;6.466;2023-03-23T09:54:43;13.10;99.90
20376;DHT22;10347;51.828;6.466;2023-03-23T09:57:26;13.10;99.90
20376;DHT22;10347;51.828;6.466;2023-03-23T10:00:03;13.20;99.90
20376;DHT22;10347;51.828;6.466;2023-03-23T10:02:39;13.20;99.90
20376;DHT22;10347;51.828;6.466;2023-03-23T10:05:27;13.20;99.90
20376;DHT22;10347;51.828;6.466;2023-03-23T10:07:54;13.20;99.90
20376;DHT22;10347;51.828;6.466;2023-03-23T10:10:24;13.30;99.90
20376;DHT22;10347;51.828;6.466;2023-03-23T10:12:56;13.30;99.90
20376;DHT22;10347;51.828;6.466;2023-03-23T10:15:27;13.30;99.90
20376;DHT22;10347;51.828;6.466;2023-03-23T10:20:39;13.20;99.90
20376;DHT22;10347;51.828;6.466;2023-03-23T10:25:59;13.30;99.90
20376;DHT22;10347;51.828;6.466;2023-03-23T10:28:41;13.30;99.90
20376;DHT22;10347;51.828;6.466;2023-03-23T10:31:11;13.30;99.90
20376;DHT22;10347;51.828;6.466;2023-03-23T10:33:50;13.20;99.90
20376;DHT22;10347;51.828;6.466;2023-03-23T10:36:22;13.20;99.90
20376;DHT22;10347;51.828;6.466;2023-03-23T10:39:02;13.20;99.90
20376;DHT22;10347;51.828;6.466;2023-03-23T10:41:29;13.20;99.90
20376;DHT22;10347;51.828;6.466;2023-03-23T10:43:55;13.20;99.90
20376;DHT22;10347;51.828;6.466;2023-03-23T10:49:08;13.30;99.90
20376;DHT22;10347;51.828;6.466;2023-03-23T10:51:40;13.40;99.90
20376;DHT22;10347;51.828;6.466;2023-03-23T10:54:07;13.50;99.90
20376;DHT22;10347;51.828;6.466;2023-03-23T10:56:44;13.60;99.90
20376;DHT22;10347;51.828;6.466;2023-03-23T10:59:26;13.70;99.90
20376;DHT22;10347;51.828;6.466;2023-03-23T11:01:58;13.70;99.90
20376;DHT22;10347;51.828;6.466;2023-03-23T11:04:25;13.80;99.90
20376;DHT22;10347;51.828;6.466;2023-03-23T11:06:52;13.90;99.90
20376;DHT22;10347;51.828;6.466;2023-03-23T11:09:22;13.90;99.90
20376;DHT22;10347;51.828;6.466;2023-03-23T11:11:58;14.00;99.90
20376;DHT22;10347;51.828;6.466;2023-03-23T11:14:26;14.10;99.90
20376;DHT22;10347;51.828;6.466;2023-03-23T11:16:58;14.00;99.90
20376;DHT22;10347;51.828;6.466;2023-03-23T11:19:28;14.10;99.90
20376;DHT22;10347;51.828;6.466;2023-03-23T11:22:20;14.10;99.90
20376;DHT22;10347;51.828;6.466;2023-03-23T11:24:45;14.10;99.90
20376;DHT22;10347;51.828;6.466;2023-03-23T11:27:11;14.10;99.90
20376;DHT22;10347;51.828;6.466;2023-03-23T11:30:00;14.20;99.90
20376;DHT22;10347;51.828;6.466;2023-03-23T11:32:29;14.30;99.90
20376;DHT22;10347;51.828;6.466;2023-03-23T11:34:58;14.30;99.90
20376;DHT22;10347;51.828;6.466;2023-03-23T11:42:49;14.50;99.90
20376;DHT22;10347;51.828;6.466;2023-03-23T11:45:46;14.50;99.90
20376;DHT22;10347;51.828;6.466;2023-03-23T11:51:02;14.60;99.90
20376;DHT22;10347;51.828;6.466;2023-03-23T11:56:26;14.70;99.90
20376;DHT22;10347;51.828;6.466;2023-03-23T11:58:55;14.70;99.90
20376;DHT22;10347;51.828;6.466;2023-03-23T12:04:33;14.80;99.90
20376;DHT22;10347;51.828;6.466;2023-03-23T12:10:02;14.90;99.90
20376;DHT22;10347;51.828;6.466;2023-03-23T12:12:43;15.00;99.90
20376;DHT22;10347;51.828;6.466;2023-03-23T12:15:26;15.00;99.90
20376;DHT22;10347;51.828;6.466;2023-03-23T12:23:35;15.00;99.90
20376;DHT22;10347;51.828;6.466;2023-03-23T12:26:12;15.00;99.90
20376;DHT22;10347;51.828;6.466;2023-03-23T12:42:31;15.20;99.90
20376;DHT22;10347;51.828;6.466;2023-03-23T12:47:46;15.20;99.90
20376;DHT22;10347;51.828;6.466;2023-03-23T12:58:03;15.40;99.90
20376;DHT22;10347;51.828;6.466;2023-03-23T13:00:52;15.40;99.90
20376;DHT22;10347;51.828;6.466;2023-03-23T13:06:00;15.60;99.90
20376;DHT22;10347;51.828;6.466;2023-03-23T13:08:37;15.50;99.90
20376;DHT22;10347;51.828;6.466;2023-03-23T13:11:07;15.60;99.90
20376;DHT22;10347;51.828;6.466;2023-03-23T13:16:43;15.80;99.90
20376;DHT22;10347;51.828;6.466;2023-03-23T13:22:23;15.90;99.90
20376;DHT22;10347;51.828;6.466;2023-03-23T13:24:56;16.00;99.90
20376;DHT22;10347;51.828;6.466;2023-03-23T13:27:24;16.00;99.90
20376;DHT22;10347;51.828;6.466;2023-03-23T13:29:56;16.20;99.90
20376;DHT22;10347;51.828;6.466;2023-03-23T13:32:33;16.20;99.90
20376;DHT22;10347;51.828;6.466;2023-03-23T13:35:02;16.20;99.90
20376;DHT22;10347;51.828;6.466;2023-03-23T13:37:28;16.20;99.90
20376;DHT22;10347;51.828;6.466;2023-03-23T13:40:13;16.30;99.90
20376;DHT22;10347;51.828;6.466;2023-03-23T13:42:56;16.30;99.90
20376;DHT22;10347;51.828;6.466;2023-03-23T13:53:44;16.30;99.90
20376;DHT22;10347;51.828;6.466;2023-03-23T13:56:20;16.30;99.90
20376;DHT22;10347;51.828;6.466;2023-03-23T13:59:08;16.30;99.90
20376;DHT22;10347;51.828;6.466;2023-03-23T14:01:39;16.30;99.90
20376;DHT22;10347;51.828;6.466;2023-03-23T14:04:14;16.30;99.90
20376;DHT22;10347;51.828;6.466;2023-03-23T14:06:42;16.30;99.90
20376;DHT22;10347;51.828;6.466;2023-03-23T14:11:58;16.30;99.90
20376;DHT22;10347;51.828;6.466;2023-03-23T14:14:31;16.30;99.90
20376;DHT22;10347;51.828;6.466;2023-03-23T14:17:18;16.40;99.90
20376;DHT22;10347;51.828;6.466;2023-03-23T14:19:49;16.40;99.90
20376;DHT22;10347;51.828;6.466;2023-03-23T14:22:24;16.40;99.90
20376;DHT22;10347;51.828;6.466;2023-03-23T14:24:50;16.30;99.90
20376;DHT22;10347;51.828;6.466;2023-03-23T14:27:21;16.40;99.90
20376;DHT22;10347;51.828;6.466;2023-03-23T14:29:58;16.40;99.90
20376;DHT22;10347;51.828;6.466;2023-03-23T14:32:27;16.40;99.90
20376;DHT22;10347;51.828;6.466;2023-03-23T14:34:53;16.40;99.90
20376;DHT22;10347;51.828;6.466;2023-03-23T14:37:20;16.40;99.90
20376;DHT22;10347;51.828;6.466;2023-03-23T14:39:49;16.40;99.90
20376;DHT22;10347;51.828;6.466;2023-03-23T14:42:18;16.40;99.90
20376;DHT22;10347;51.828;6.466;2023-03-23T14:44:47;16.50;99.90
20376;DHT22;10347;51.828;6.466;2023-03-23T14:47:25;16.50;99.90
20376;DHT22;10347;51.828;6.466;2023-03-23T14:49:57;16.50;99.90
20376;DHT22;10347;51.828;6.466;2023-03-23T14:52:28;16.40;99.90
20376;DHT22;10347;51.828;6.466;2023-03-23T14:54:54;16.40;99.90
20376;DHT22;10347;51.828;6.466;2023-03-23T14:59:49;16.10;99.90
20376;DHT22;10347;51.828;6.466;2023-03-23T15:04:54;15.60;99.90
20376;DHT22;10347;51.828;6.466;2023-03-23T15:07:22;15.50;99.90
20376;DHT22;10347;51.828;6.466;2023-03-23T15:09:49;15.40;99.90
20376;DHT22;10347;51.828;6.466;2023-03-23T15:12:27;15.40;99.90
20376;DHT22;10347;51.828;6.466;2023-03-23T15:14:57;15.40;99.90
20376;DHT22;10347;51.828;6.466;2023-03-23T15:17:32;15.40;99.90
20376;DHT22;10347;51.828;6.466;2023-03-23T15:20:08;15.30;99.90
20376;DHT22;10347;51.828;6.466;2023-03-23T15:22:34;15.40;99.90
20376;DHT22;10347;51.828;6.466;2023-03-23T15:25:10;15.40;99.90
20376;DHT22;10347;51.828;6.466;2023-03-23T15:27:44;15.50;99.90
20376;DHT22;10347;51.828;6.466;2023-03-23T15:35:52;15.60;99.90
20376;DHT22;10347;51.828;6.466;2023-03-23T15:38:31;15.60;99.90
20376;DHT22;10347;51.828;6.466;2023-03-23T15:41:01;15.60;99.90
20376;DHT22;10347;51.828;6.466;2023-03-23T15:43:27;15.70;99.90
20376;DHT22;10347;51.828;6.466;2023-03-23T15:46:05;15.70;99.90
20376;DHT22;10347;51.828;6.466;2023-03-23T15:49:08;15.70;99.90
20376;DHT22;10347;51.828;6.466;2023-03-23T15:51:35;15.80;99.90
20376;DHT22;10347;51.828;6.466;2023-03-23T15:54:01;15.70;99.90
20376;DHT22;10347;51.828;6.466;2023-03-23T15:56:27;15.70;99.90
20376;DHT22;10347;51.828;6.466;2023-03-23T15:58:54;15.70;99.90
20376;DHT22;10347;51.828;6.466;2023-03-23T16:01:24;15.80;99.90
20376;DHT22;10347;51.828;6.466;2023-03-23T16:06:23;15.80;99.90
20376;DHT22;10347;51.828;6.466;2023-03-23T16:08:50;15.70;99.90
20376;DHT22;10347;51.828;6.466;2023-03-23T16:11:17;15.70;99.90
20376;DHT22;10347;51.828;6.466;2023-03-23T16:13:43;15.70;99.90
20376;DHT22;10347;51.828;6.466;2023-03-23T16:18:47;15.70;99.90
20376;DHT22;10347;51.828;6.466;2023-03-23T16:21:13;15.60;99.90
20376;DHT22;10347;51.828;6.466;2023-03-23T16:23:38;15.70;99.90
20376;DHT22;10347;51.828;6.466;2023-03-23T16:26:05;15.70;99.90
20376;DHT22;10347;51.828;6.466;2023-03-23T16:28:31;15.70;99.90
20376;DHT22;10347;51.828;6.466;2023-03-23T16:30:57;15.70;99.90
20376;DHT22;10347;51.828;6.466;2023-03-23T16:33:22;15.70;99.90
20376;DHT22;10347;51.828;6.466;2023-03-23T16:35:48;15.70;99.90
20376;DHT22;10347;51.828;6.466;2023-03-23T16:38:15;15.70;99.90
20376;DHT22;10347;51.828;6.466;2023-03-23T16:40:42;15.60;99.90
20376;DHT22;10347;51.828;6.466;2023-03-23T16:43:08;15.60;99.90
20376;DHT22;10347;51.828;6.466;2023-03-23T16:45:34;15.60;99.90
20376;DHT22;10347;51.828;6.466;2023-03-23T16:47:59;15.60;99.90
20376;DHT22;10347;51.828;6.466;2023-03-23T16:50:27;15.60;99.90
20376;DHT22;10347;51.828;6.466;2023-03-23T16:52:54;15.60;99.90
20376;DHT22;10347;51.828;6.466;2023-03-23T16:55:20;15.50;99.90
20376;DHT22;10347;51.828;6.466;2023-03-23T16:57:45;15.50;99.90
20376;DHT22;10347;51.828;6.466;2023-03-23T17:00:16;15.50;99.90
20376;DHT22;10347;51.828;6.466;2023-03-23T17:02:47;15.50;99.90
20376;DHT22;10347;51.828;6.466;2023-03-23T17:05:13;15.50;99.90
20376;DHT22;10347;51.828;6.466;2023-03-23T17:07:40;15.40;99.90
20376;DHT22;10347;51.828;6.466;2023-03-23T17:10:08;15.50;99.90
20376;DHT22;10347;51.828;6.466;2023-03-23T17:12:34;15.40;99.90
20376;DHT22;10347;51.828;6.466;2023-03-23T17:15:00;15.40;99.90
20376;DHT22;10347;51.828;6.466;2023-03-23T17:17:26;15.40;99.90
20376;DHT22;10347;51.828;6.466;2023-03-23T17:19:52;15.40;99.90
20376;DHT22;10347;51.828;6.466;2023-03-23T17:22:18;15.30;99.90
20376;DHT22;10347;51.828;6.466;2023-03-23T17:24:44;15.40;99.90
20376;DHT22;10347;51.828;6.466;2023-03-23T17:27:12;15.40;99.90
20376;DHT22;10347;51.828;6.466;2023-03-23T17:29:38;15.30;99.90
20376;DHT22;10347;51.828;6.466;2023-03-23T17:32:04;15.30;99.90
20376;DHT22;10347;51.828;6.466;2023-03-23T17:34:29;15.30;99.90
20376;DHT22;10347;51.828;6.466;2023-03-23T17:36:55;15.30;99.90